Time;durP1;ratioP1;P1;durP2;ratioP2;P2;SDS_P1;SDS_P2;PMS_P1;PMS_P2;Temp;Humidity;BMP_temperature;BMP_pressure;BME280_temperature;BME280_humidity;BME280_pressure;Samples;Min_cycle;Max_cycle;Signal;HPM_P1;HPM_P2
2023/02/28 00:00:18;;;;;;;;;16.67;13.00;27.40;35.00;;;;;;109564;1259;55952;-65
2023/02/28 00:03:05;;;;;;;;;22.50;14.00;27.40;34.80;;;;;;109499;1255;55560;-66
2023/02/28 00:05:31;;;;;;;;;16.00;13.00;27.60;34.80;;;;;;109550;1259;49048;-66
2023/02/28 00:07:57;;;;;;;;;17.00;16.00;27.60;34.60;;;;;;109549;1260;49050;-65
2023/02/28 00:10:29;;;;;;;;;16.50;14.00;27.70;34.60;;;;;;109559;1255;45284;-66
2023/02/28 00:13:00;;;;;;;;;20.00;17.00;27.70;34.50;;;;;;109526;1260;56916;-65
2023/02/28 00:15:26;;;;;;;;;19.00;17.00;27.70;34.40;;;;;;109714;1259;54088;-65
2023/02/28 00:17:53;;;;;;;;;22.00;16.00;27.70;34.30;;;;;;109597;1259;50761;-65
2023/02/28 00:20:19;;;;;;;;;15.00;13.00;27.70;34.10;;;;;;109993;1260;50599;-65
2023/02/28 00:22:48;;;;;;;;;14.00;13.00;27.70;34.00;;;;;;109511;1255;45741;-65
2023/02/28 00:25:18;;;;;;;;;21.00;13.00;27.70;34.10;;;;;;109607;1260;55292;-65
2023/02/28 00:27:45;;;;;;;;;19.00;16.50;27.80;33.80;;;;;;109587;1255;53624;-66
2023/02/28 00:30:17;;;;;;;;;15.00;12.00;27.70;33.80;;;;;;109603;1255;49139;-66
2023/02/28 00:32:44;;;;;;;;;16.00;12.50;27.70;33.50;;;;;;109453;1257;50357;-65
2023/02/28 00:35:10;;;;;;;;;14.00;13.00;27.70;33.40;;;;;;109530;1259;45878;-65
2023/02/28 00:37:37;;;;;;;;;16.50;13.50;27.70;33.30;;;;;;109458;1255;55116;-64
2023/02/28 00:40:06;;;;;;;;;19.00;14.00;27.60;33.10;;;;;;109544;1258;55065;-65
2023/02/28 00:42:34;;;;;;;;;15.00;13.50;27.60;33.00;;;;;;109571;1259;49364;-64
2023/02/28 00:45:00;;;;;;;;;21.00;16.00;27.60;33.60;;;;;;109528;1259;50104;-64
2023/02/28 00:47:26;;;;;;;;;13.00;12.00;27.60;33.00;;;;;;109624;1255;46238;-65
2023/02/28 00:49:53;;;;;;;;;16.00;12.00;27.60;33.10;;;;;;109561;1259;56107;-66
2023/02/28 00:52:19;;;;;;;;;18.00;14.00;27.50;32.80;;;;;;109424;1260;54640;-65
2023/02/28 00:54:45;;;;;;;;;14.00;11.00;27.50;32.70;;;;;;109579;1255;49469;-66
2023/02/28 00:57:11;;;;;;;;;14.00;11.50;27.40;32.60;;;;;;109568;1259;49905;-66
2023/02/28 00:59:37;;;;;;;;;14.00;11.00;27.40;33.10;;;;;;109571;1255;46349;-67
2023/02/28 01:02:04;;;;;;;;;16.00;12.00;27.30;32.40;;;;;;109547;1260;56071;-67
2023/02/28 01:04:30;;;;;;;;;;;27.30;32.50;;;;;;109601;1255;53869;-67
2023/02/28 01:06:56;;;;;;;;;17.00;14.00;27.20;32.60;;;;;;109574;1259;50195;-64
2023/02/28 01:09:22;;;;;;;;;14.00;13.00;27.20;32.40;;;;;;109540;1259;49542;-64
2023/02/28 01:11:48;;;;;;;;;13.00;12.00;27.10;32.40;;;;;;109613;1255;45787;-65
2023/02/28 01:14:16;;;;;;;;;15.00;12.00;27.00;32.50;;;;;;109613;1260;55945;-66
2023/02/28 01:16:42;;;;;;;;;14.00;13.00;26.90;32.50;;;;;;109595;1260;54194;-66
2023/02/28 01:19:09;;;;;;;;;18.00;15.00;26.90;32.50;;;;;;109613;1255;50254;-64
2023/02/28 01:21:35;;;;;;;;;16.00;13.00;26.80;32.50;;;;;;109266;1263;49740;-66
2023/02/28 01:24:03;;;;;;;;;21.00;15.00;26.80;32.50;;;;;;109588;1255;45316;-66
2023/02/28 01:26:30;;;;;;;;;16.50;12.00;26.70;32.50;;;;;;109704;1255;55756;-63
2023/02/28 01:28:56;;;;;;;;;16.33;13.67;26.70;32.60;;;;;;109569;1260;53503;-63
2023/02/28 01:31:23;;;;;;;;;14.00;13.00;26.60;32.90;;;;;;109745;1256;49446;-64
2023/02/28 01:33:49;;;;;;;;;15.67;13.67;26.60;33.00;;;;;;109670;1255;50052;-64
2023/02/28 01:36:22;;;;;;;;;16.00;14.00;26.60;33.00;;;;;;109563;1257;45317;-64
2023/02/28 01:38:48;;;;;;;;;21.00;15.00;26.60;33.20;;;;;;109656;1255;55498;-64
2023/02/28 01:41:26;;;;;;;;;15.50;14.50;26.60;33.30;;;;;;109582;1255;53733;-64
2023/02/28 01:44:05;;;;;;;;;17.50;14.75;26.60;33.50;;;;;;109515;1255;49793;-63
2023/02/28 01:46:34;;;;;;;;;19.00;13.00;26.60;33.60;;;;;;109677;1259;49652;-65
2023/02/28 01:49:13;;;;;;;;;17.00;13.00;26.70;33.80;;;;;;109542;1257;45420;-64
2023/02/28 01:51:50;;;;;;;;;21.00;16.33;26.80;33.90;;;;;;109488;1255;55320;-65
2023/02/28 01:54:21;;;;;;;;;23.00;14.00;26.80;33.80;;;;;;109555;1255;54679;-65
2023/02/28 01:56:59;;;;;;;;;13.00;12.50;26.90;33.80;;;;;;109544;1259;49067;-64
2023/02/28 01:59:49;;;;;;;;;16.00;14.00;26.90;33.80;;;;;;109616;1260;49227;-66
2023/02/28 02:02:17;;;;;;;;;16.00;14.00;27.00;33.90;;;;;;109603;1255;45980;-66
2023/02/28 02:05:05;;;;;;;;;15.00;13.00;27.10;33.90;;;;;;109755;1255;55574;-67
2023/02/28 02:07:34;;;;;;;;;20.00;14.00;27.10;33.70;;;;;;109558;1260;53395;-67
2023/02/28 02:10:17;;;;;;;;;14.00;13.00;27.20;33.70;;;;;;109780;1255;50127;-67
2023/02/28 02:12:43;;;;;;;;;14.00;13.00;27.30;33.80;;;;;;109418;1260;49580;-66
2023/02/28 02:15:16;;;;;;;;;12.00;10.50;27.40;33.90;;;;;;109570;1258;46014;-66
2023/02/28 02:17:46;;;;;;;;;15.00;13.00;27.50;33.90;;;;;;109628;1259;55758;-66
2023/02/28 02:20:38;;;;;;;;;15.00;11.00;27.50;33.80;;;;;;109628;1259;55017;-66
2023/02/28 02:23:26;;;;;;;;;17.00;13.00;27.60;33.80;;;;;;109202;1259;50664;-66
2023/02/28 02:26:11;;;;;;;;;14.00;11.00;27.70;33.70;;;;;;109684;1255;48707;-66
2023/02/28 02:28:53;;;;;;;;;14.00;13.00;27.80;33.90;;;;;;109699;1257;45296;-66
2023/02/28 02:31:34;;;;;;;;;13.00;10.00;27.80;33.60;;;;;;109831;1255;55339;-67
2023/02/28 02:34:00;;;;;;;;;14.00;10.50;27.90;33.60;;;;;;109707;1260;53345;-67
2023/02/28 02:36:42;;;;;;;;;16.00;13.00;28.00;33.60;;;;;;109640;1255;49537;-67
2023/02/28 02:39:08;;;;;;;;;14.00;12.00;28.10;33.80;;;;;;109879;1260;49638;-66
2023/02/28 02:41:50;;;;;;;;;14.00;12.50;28.10;33.50;;;;;;109515;1255;45536;-67
2023/02/28 02:44:22;;;;;;;;;14.50;13.50;28.10;33.60;;;;;;109590;1255;56891;-66
2023/02/28 02:46:52;;;;;;;;;18.50;15.00;28.20;33.30;;;;;;109659;1260;54654;-67
2023/02/28 02:49:28;;;;;;;;;16.50;13.50;28.20;33.10;;;;;;109652;1258;50073;-66
2023/02/28 02:51:56;;;;;;;;;13.00;11.00;28.20;33.10;;;;;;110094;1259;49449;-66
2023/02/28 02:54:28;;;;;;;;;13.00;12.00;28.20;33.00;;;;;;109533;1258;46101;-65
2023/02/28 02:56:58;;;;;;;;;16.50;11.50;28.20;32.80;;;;;;109532;1261;56315;-66
2023/02/28 02:59:24;;;;;;;;;12.00;11.00;28.20;32.60;;;;;;109590;1259;53890;-65
2023/02/28 03:02:03;;;;;;;;;15.50;14.50;28.30;32.60;;;;;;109413;1261;50312;-66
2023/02/28 03:04:35;;;;;;;;;13.00;11.00;28.20;32.50;;;;;;109494;1257;50245;-66
2023/02/28 03:07:01;;;;;;;;;13.00;12.00;28.20;32.40;;;;;;109405;1263;45129;-68
2023/02/28 03:09:27;;;;;;;;;12.50;10.50;28.20;32.40;;;;;;109649;1255;55912;-65
2023/02/28 03:11:56;;;;;;;;;13.00;12.00;28.20;32.30;;;;;;109454;1255;53730;-65
2023/02/28 03:14:28;;;;;;;;;15.00;13.00;28.20;32.30;;;;;;109846;1259;49474;-65
2023/02/28 03:17:01;;;;;;;;;13.00;11.00;28.10;31.70;;;;;;109566;1255;49745;-64
2023/02/28 03:19:55;;;;;;;;;15.00;12.00;28.10;32.30;;;;;;109658;1255;45181;-66
2023/02/28 03:22:49;;;;;;;;;16.00;11.00;28.10;32.20;;;;;;109581;1260;56857;-66
2023/02/28 03:25:42;;;;;;;;;16.00;15.00;28.00;31.90;;;;;;109600;1255;53662;-66
2023/02/28 03:28:35;;;;;;;;;13.50;10.50;27.90;32.00;;;;;;109523;1259;49139;-66
2023/02/28 03:31:20;;;;;;;;;15.00;12.00;27.90;31.80;;;;;;109496;1261;49828;-66
2023/02/28 03:33:58;;;;;;;;;15.50;12.50;27.90;31.80;;;;;;109635;1255;46138;-65
2023/02/28 03:36:29;;;;;;;;;14.00;13.00;27.80;31.70;;;;;;109573;1255;56098;-66
2023/02/28 03:39:02;;;;;;;;;13.00;12.00;27.80;31.70;;;;;;109627;1259;54622;-66
2023/02/28 03:41:38;;;;;;;;;15.00;13.00;27.70;31.70;;;;;;109437;1261;49528;-66
2023/02/28 03:44:18;;;;;;;;;16.00;15.00;27.60;31.30;;;;;;109550;1255;49136;-65
2023/02/28 03:47:02;;;;;;;;;17.50;13.50;27.60;31.70;;;;;;109539;1260;46428;-64
2023/02/28 03:49:33;;;;;;;;;13.00;12.50;27.50;31.60;;;;;;109593;1259;55401;-64
2023/02/28 03:52:02;;;;;;;;;18.00;13.00;27.50;31.60;;;;;;109485;1259;54175;-64
2023/02/28 03:54:32;;;;;;;;;11.00;10.00;27.40;31.50;;;;;;109491;1257;50058;-64
2023/02/28 03:57:30;;;;;;;;;13.00;12.00;27.30;31.70;;;;;;109364;1258;49157;-64
2023/02/28 04:00:05;;;;;;;;;15.00;14.00;27.20;31.40;;;;;;109680;1255;45739;-65
2023/02/28 04:02:32;;;;;;;;;18.50;16.50;27.20;31.40;;;;;;109471;1260;55786;-65
2023/02/28 04:05:00;;;;;;;;;15.00;13.00;27.20;31.80;;;;;;109529;1260;53932;-66
2023/02/28 04:07:29;;;;;;;;;15.50;12.00;27.10;31.40;;;;;;109579;1255;49688;-67
2023/02/28 04:09:56;;;;;;;;;13.00;12.00;27.00;31.60;;;;;;109541;1255;49980;-67
2023/02/28 04:12:23;;;;;;;;;12.50;11.50;27.00;31.60;;;;;;109514;1260;45387;-68
2023/02/28 04:14:49;;;;;;;;;17.00;13.00;26.90;31.70;;;;;;109539;1255;55631;-68
2023/02/28 04:17:16;;;;;;;;;14.00;12.00;26.80;31.80;;;;;;109549;1259;54465;-68
2023/02/28 04:19:42;;;;;;;;;13.00;12.00;26.80;32.00;;;;;;109668;1258;49877;-68
2023/02/28 04:22:09;;;;;;;;;14.00;11.50;26.80;32.20;;;;;;109481;1261;50093;-69
2023/02/28 04:24:36;;;;;;;;;18.00;15.00;26.80;32.30;;;;;;109600;1255;45305;-68
2023/02/28 04:27:02;;;;;;;;;14.50;13.00;26.80;32.60;;;;;;109605;1255;56266;-68
2023/02/28 04:29:32;;;;;;;;;12.00;11.00;26.80;32.50;;;;;;109525;1255;53893;-67
2023/02/28 04:31:59;;;;;;;;;13.50;13.00;26.80;32.60;;;;;;109537;1260;50453;-67
2023/02/28 04:34:27;;;;;;;;;16.67;14.67;26.90;32.70;;;;;;109658;1261;49367;-68
2023/02/28 04:36:54;;;;;;;;;14.00;13.00;26.90;32.90;;;;;;109540;1260;45538;-68
2023/02/28 04:39:24;;;;;;;;;12.00;11.00;27.00;32.80;;;;;;109631;1259;55474;-69
2023/02/28 04:41:50;;;;;;;;;15.00;10.50;27.00;32.80;;;;;;109501;1255;53227;-65
2023/02/28 04:44:17;;;;;;;;;14.33;12.00;27.00;33.00;;;;;;109569;1261;49153;-64
2023/02/28 04:46:43;;;;;;;;;13.67;12.00;27.10;32.90;;;;;;109678;1255;51902;-66
2023/02/28 04:49:11;;;;;;;;;13.00;12.00;27.10;32.90;;;;;;109706;1260;46634;-66
2023/02/28 04:51:37;;;;;;;;;14.33;11.33;27.20;32.90;;;;;;109617;1255;56136;-67
2023/02/28 04:54:04;;;;;;;;;21.00;17.00;27.30;33.00;;;;;;109560;1255;54042;-65
2023/02/28 04:56:30;;;;;;;;;17.00;14.00;27.30;34.00;;;;;;109834;1261;50605;-65
2023/02/28 04:58:57;;;;;;;;;13.00;12.00;27.40;35.10;;;;;;109932;1255;49766;-65
2023/02/28 05:01:29;;;;;;;;;16.00;13.00;27.40;35.40;;;;;;109948;1257;46709;-67
2023/02/28 05:03:57;;;;;;;;;14.00;13.00;27.50;35.30;;;;;;109905;1261;56673;-66
2023/02/28 05:06:25;;;;;;;;;16.00;13.00;27.50;35.30;;;;;;109797;1260;54134;-67
2023/02/28 05:08:52;;;;;;;;;17.00;14.00;27.50;35.40;;;;;;109646;1259;49098;-67
2023/02/28 05:11:21;;;;;;;;;14.00;13.00;27.50;35.50;;;;;;109646;1264;49410;-65
2023/02/28 05:13:49;;;;;;;;;16.00;12.50;27.50;35.60;;;;;;109864;1260;46320;-65
2023/02/28 05:16:16;;;;;;;;;18.50;14.00;27.50;35.50;;;;;;109738;1260;55464;-68
2023/02/28 05:18:42;;;;;;;;;16.00;15.00;27.50;35.60;;;;;;109703;1257;53966;-73
2023/02/28 05:21:39;;;;;;;;;15.00;12.00;27.50;35.60;;;;;;109760;1257;50092;-67
2023/02/28 05:24:10;;;;;;;;;15.00;13.50;27.40;35.80;;;;;;109508;1260;49419;-66
2023/02/28 05:26:38;;;;;;;;;16.50;14.00;27.50;36.10;;;;;;109741;1256;45438;-65
2023/02/28 05:29:05;;;;;;;;;14.50;13.50;27.50;36.20;;;;;;109648;1255;55380;-65
2023/02/28 05:31:32;;;;;;;;;20.00;18.00;27.40;36.00;;;;;;109720;1255;54003;-66
2023/02/28 05:33:58;;;;;;;;;17.00;16.00;27.40;35.70;;;;;;109626;1261;49245;-63
2023/02/28 05:36:25;;;;;;;;;16.50;14.00;27.30;35.50;;;;;;109635;1255;49846;-70
2023/02/28 05:38:51;;;;;;;;;17.00;16.00;27.30;35.30;;;;;;109679;1255;45474;-64
2023/02/28 05:41:21;;;;;;;;;17.00;15.00;27.30;35.20;;;;;;109527;1255;56093;-65
2023/02/28 05:43:48;;;;;;;;;16.00;14.00;27.20;35.20;;;;;;109502;1255;54107;-64
2023/02/28 05:46:15;;;;;;;;;15.00;12.00;27.20;34.80;;;;;;109601;1255;50370;-65
2023/02/28 05:48:42;;;;;;;;;15.00;13.50;27.20;34.70;;;;;;109581;1257;50004;-65
2023/02/28 05:51:09;;;;;;;;;15.00;14.00;27.10;34.50;;;;;;109589;1257;45894;-68
2023/02/28 05:53:36;;;;;;;;;15.00;14.00;27.10;34.40;;;;;;109620;1255;55383;-69
2023/02/28 05:56:03;;;;;;;;;16.00;15.00;27.10;34.50;;;;;;109590;1260;53805;-69
2023/02/28 05:58:30;;;;;;;;;15.00;14.00;27.00;34.20;;;;;;109728;1260;50371;-67
2023/02/28 06:01:01;;;;;;;;;14.50;13.50;26.90;34.10;;;;;;109674;1256;49237;-68
2023/02/28 06:03:27;;;;;;;;;18.00;15.00;26.90;34.20;;;;;;109843;1260;45841;-67
2023/02/28 06:05:54;;;;;;;;;15.50;13.00;26.80;33.90;;;;;;109730;1260;55643;-68
2023/02/28 06:08:20;;;;;;;;;15.00;13.50;26.80;33.70;;;;;;109713;1255;54774;-68
2023/02/28 06:10:46;;;;;;;;;17.00;15.00;26.70;33.60;;;;;;109709;1256;49742;-68
2023/02/28 06:13:12;;;;;;;;;14.00;12.50;26.60;33.70;;;;;;109632;1259;50259;-70
2023/02/28 06:15:39;;;;;;;;;18.00;15.00;26.60;33.50;;;;;;109691;1260;45678;-70
2023/02/28 06:18:05;;;;;;;;;20.00;17.00;26.50;33.30;;;;;;109752;1255;55811;-68
2023/02/28 06:20:31;;;;;;;;;21.00;16.00;26.50;34.00;;;;;;109641;1255;53528;-67
2023/02/28 06:23:00;;;;;;;;;21.00;17.50;26.40;33.40;;;;;;109461;1259;50064;-67
2023/02/28 06:25:27;;;;;;;;;;;26.40;34.00;;;;;;109896;1260;49192;-62
2023/02/28 06:27:54;;;;;;;;;16.50;15.00;26.30;34.10;;;;;;109828;1261;46039;-67
2023/02/28 06:30:25;;;;;;;;;20.50;18.00;26.30;34.50;;;;;;109596;1257;56225;-72
2023/02/28 06:32:51;;;;;;;;;22.00;16.00;26.20;34.70;;;;;;109869;1255;54412;-72
2023/02/28 06:35:18;;;;;;;;;24.00;18.00;26.20;35.10;;;;;;109533;1255;50227;-65
2023/02/28 06:37:44;;;;;;;;;29.00;20.00;26.20;35.60;;;;;;109562;1255;49185;-61
2023/02/28 06:40:12;;;;;;;;;35.50;26.00;26.10;36.20;;;;;;109569;1261;45603;-68
2023/02/28 06:42:39;;;;;;;;;34.00;24.00;26.00;36.70;;;;;;109508;1255;55121;-66
2023/02/28 06:45:08;;;;;;;;;47.00;33.00;25.90;37.10;;;;;;109580;1255;54315;-67
2023/02/28 06:47:37;;;;;;;;;43.00;30.50;25.90;37.70;;;;;;109488;1255;50322;-64
2023/02/28 06:50:04;;;;;;;;;38.50;31.50;25.90;37.00;;;;;;109699;1257;49964;-60
2023/02/28 06:52:31;;;;;;;;;37.00;31.00;25.90;32.90;;;;;;109512;1257;45989;-61
2023/02/28 06:55:00;;;;;;;;;33.25;29.50;25.70;30.60;;;;;;109664;1257;55659;-62
2023/02/28 06:57:32;;;;;;;;;;;25.60;30.00;;;;;;109700;1261;55033;-62
2023/02/28 06:59:59;;;;;;;;;40.00;31.00;25.40;29.10;;;;;;109603;1255;50286;-70
2023/02/28 07:02:27;;;;;;;;;37.50;34.00;25.30;28.70;;;;;;109913;1260;49533;-60
2023/02/28 07:04:54;;;;;;;;;38.00;32.00;25.10;28.90;;;;;;109690;1260;44641;-62
2023/02/28 07:07:21;;;;;;;;;34.00;31.00;25.10;29.70;;;;;;109676;1260;177275;-61
2023/02/28 07:09:47;;;;;;;;;31.00;24.67;25.00;30.20;;;;;;109797;1259;53976;-61
2023/02/28 07:12:13;;;;;;;;;39.50;30.00;24.90;30.40;;;;;;109635;1257;49474;-61
2023/02/28 07:14:40;;;;;;;;;27.00;25.00;24.90;31.30;;;;;;109780;1257;50450;-60
2023/02/28 07:17:11;;;;;;;;;33.00;29.00;24.80;31.40;;;;;;109698;1255;45287;-61
2023/02/28 07:19:39;;;;;;;;;32.25;28.00;24.70;31.90;;;;;;109704;1257;55059;-61
2023/02/28 07:22:06;;;;;;;;;30.00;27.00;24.60;32.70;;;;;;109722;1257;54040;-62
2023/02/28 07:24:33;;;;;;;;;42.00;33.00;24.50;33.40;;;;;;109737;1260;50828;-61
2023/02/28 07:26:59;;;;;;;;;35.50;28.00;24.40;33.90;;;;;;109630;1255;49151;-62
2023/02/28 07:29:25;;;;;;;;;47.00;33.00;24.40;34.10;;;;;;109582;1255;45790;-60
2023/02/28 07:31:52;;;;;;;;;32.00;27.00;24.30;33.50;;;;;;109628;1255;55737;-61
2023/02/28 07:34:20;;;;;;;;;38.00;29.00;24.20;34.10;;;;;;109632;1259;54244;-61
2023/02/28 07:36:46;;;;;;;;;36.00;27.00;24.20;34.40;;;;;;109608;1256;49035;-60
2023/02/28 07:39:13;;;;;;;;;36.00;31.00;24.10;34.60;;;;;;109624;1257;49737;-62
2023/02/28 07:41:43;;;;;;;;;35.00;29.00;24.00;34.60;;;;;;109769;1260;46298;-61
2023/02/28 07:44:12;;;;;;;;;28.50;26.00;24.00;34.80;;;;;;109779;1257;56629;-62
2023/02/28 07:46:39;;;;;;;;;27.50;25.00;24.00;35.00;;;;;;109649;1257;54785;-61
2023/02/28 07:49:05;;;;;;;;;34.00;29.50;23.90;35.00;;;;;;109573;1259;50568;-61
2023/02/28 07:51:32;;;;;;;;;31.00;27.50;23.90;35.10;;;;;;109745;1255;50223;-61
2023/02/28 07:53:58;;;;;;;;;35.00;29.67;23.80;35.10;;;;;;109614;1257;45868;-61
2023/02/28 07:56:24;;;;;;;;;32.00;27.00;23.80;35.20;;;;;;109729;1255;56071;-61
2023/02/28 07:58:50;;;;;;;;;29.00;25.00;23.80;35.30;;;;;;109577;1259;54466;-62
2023/02/28 08:01:18;;;;;;;;;32.00;25.00;23.70;35.40;;;;;;109613;1255;49861;-60
2023/02/28 08:03:44;;;;;;;;;31.50;30.00;23.70;35.30;;;;;;109653;1255;49117;-61
2023/02/28 08:06:19;;;;;;;;;31.00;28.00;23.60;35.90;;;;;;109662;1259;45627;-61
2023/02/28 08:08:46;;;;;;;;;28.50;27.50;23.60;35.60;;;;;;109699;1260;55414;-61
2023/02/28 08:11:13;;;;;;;;;30.00;26.00;23.60;35.00;;;;;;109669;1258;54822;-60
2023/02/28 08:13:39;;;;;;;;;28.33;26.33;23.60;35.40;;;;;;109637;1255;50031;-61
2023/02/28 08:16:06;;;;;;;;;29.00;26.50;23.50;35.40;;;;;;109610;1260;49361;-61
2023/02/28 08:18:32;;;;;;;;;30.00;28.00;23.50;35.50;;;;;;109803;1255;46138;-60
2023/02/28 08:20:59;;;;;;;;;34.00;27.00;23.50;35.60;;;;;;109807;1258;55541;-62
2023/02/28 08:23:25;;;;;;;;;32.00;26.00;23.50;35.70;;;;;;109899;1259;53494;-61
2023/02/28 08:25:55;;;;;;;;;33.00;28.00;23.40;35.80;;;;;;109746;1256;50636;-60
2023/02/28 08:28:22;;;;;;;;;31.00;26.00;23.40;35.60;;;;;;109831;1259;49792;-61
2023/02/28 08:30:48;;;;;;;;;27.00;25.00;23.40;35.60;;;;;;109721;1255;45429;-61
2023/02/28 08:33:15;;;;;;;;;27.00;25.50;23.30;35.60;;;;;;109641;1257;55517;-61
2023/02/28 08:35:41;;;;;;;;;28.00;25.00;23.30;35.60;;;;;;109643;1257;53897;-63
2023/02/28 08:38:07;;;;;;;;;28.00;25.00;23.30;35.60;;;;;;109598;1257;50017;-62
2023/02/28 08:40:33;;;;;;;;;29.00;24.00;23.30;35.90;;;;;;109678;1257;49116;-61
2023/02/28 08:43:00;;;;;;;;;30.00;28.00;23.20;35.60;;;;;;109625;1260;46195;-62
2023/02/28 08:45:26;;;;;;;;;31.33;28.67;23.20;35.80;;;;;;109577;1259;55364;-60
2023/02/28 08:47:55;;;;;;;;;25.33;24.00;23.20;35.80;;;;;;109628;1260;54612;-62
2023/02/28 08:50:22;;;;;;;;;29.67;25.33;23.20;35.80;;;;;;109562;1260;49055;-61
2023/02/28 08:52:48;;;;;;;;;29.00;24.67;23.10;35.60;;;;;;109665;1255;50565;-62
2023/02/28 08:55:15;;;;;;;;;28.00;27.00;23.10;35.80;;;;;;109558;1260;45196;-61
2023/02/28 08:57:41;;;;;;;;;29.00;26.50;23.10;35.80;;;;;;109638;1256;55495;-61
2023/02/28 09:00:08;;;;;;;;;31.00;28.00;23.10;35.90;;;;;;109609;1255;53785;-61
2023/02/28 09:02:34;;;;;;;;;34.50;26.50;23.00;36.10;;;;;;109676;1259;49106;-61
2023/02/28 09:05:00;;;;;;;;;29.00;27.00;23.00;35.90;;;;;;109657;1259;49346;-61
2023/02/28 09:07:27;;;;;;;;;30.00;26.67;23.00;35.80;;;;;;109637;1260;46333;-61
2023/02/28 09:09:53;;;;;;;;;27.00;24.00;23.00;35.80;;;;;;109594;1258;55902;-61
2023/02/28 09:12:25;;;;;;;;;32.50;27.00;23.00;35.80;;;;;;109719;1261;53729;-61
2023/02/28 09:14:51;;;;;;;;;31.50;26.00;23.00;35.90;;;;;;109620;1255;49430;-61
2023/02/28 09:17:19;;;;;;;;;32.00;28.00;23.00;35.90;;;;;;109642;1257;49845;-62
2023/02/28 09:19:45;;;;;;;;;33.00;28.00;22.90;35.80;;;;;;109606;1255;46137;-61
2023/02/28 09:22:11;;;;;;;;;33.00;28.50;22.90;35.90;;;;;;109583;1257;55338;-59
2023/02/28 09:24:38;;;;;;;;;31.00;28.00;22.90;36.00;;;;;;109616;1260;53585;-61
2023/02/28 09:27:05;;;;;;;;;30.00;28.00;22.90;36.20;;;;;;109695;1260;49378;-61
2023/02/28 09:29:32;;;;;;;;;33.00;30.00;22.90;35.90;;;;;;109575;1260;49624;-60
2023/02/28 09:31:59;;;;;;;;;37.00;30.00;22.80;35.80;;;;;;109729;1261;46114;-61
2023/02/28 09:34:30;;;;;;;;;32.50;29.50;22.90;36.00;;;;;;109870;1260;55527;-62
2023/02/28 09:36:57;;;;;;;;;32.00;29.00;22.90;36.00;;;;;;109598;1255;54035;-61
2023/02/28 09:39:24;;;;;;;;;35.00;28.00;22.80;35.90;;;;;;109717;1260;50219;-62
2023/02/28 09:41:52;;;;;;;;;29.00;28.00;22.80;36.60;;;;;;109698;1255;49789;-62
2023/02/28 09:44:30;;;;;;;;;29.00;26.00;22.80;35.90;;;;;;109554;1257;45524;-62
2023/02/28 09:46:59;;;;;;;;;;;22.80;35.80;;;;;;109776;1256;55872;-62
2023/02/28 09:49:31;;;;;;;;;35.50;28.50;22.80;36.00;;;;;;109965;1260;54000;-61
2023/02/28 09:52:08;;;;;;;;;33.00;29.00;22.80;35.90;;;;;;109589;1260;49261;-61
2023/02/28 09:54:36;;;;;;;;;30.50;25.50;22.80;35.70;;;;;;109517;1257;50191;-64
2023/02/28 09:57:17;;;;;;;;;32.00;29.00;22.80;35.70;;;;;;109772;1259;46783;-62
2023/02/28 10:00:13;;;;;;;;;34.50;28.50;22.80;35.70;;;;;;109687;1260;55582;-63
2023/02/28 10:02:54;;;;;;;;;30.00;28.00;22.80;35.70;;;;;;109759;1259;54437;-61
2023/02/28 10:05:31;;;;;;;;;32.00;29.00;22.80;35.70;;;;;;109817;1259;49045;-60
2023/02/28 10:08:14;;;;;;;;;27.00;25.00;22.80;35.90;;;;;;109653;1260;49871;-62
2023/02/28 10:10:55;;;;;;;;;36.00;31.25;22.80;35.60;;;;;;109718;1260;45574;-62
2023/02/28 10:13:50;;;;;;;;;31.00;28.50;22.80;35.70;;;;;;109635;1258;56179;-62
2023/02/28 10:16:26;;;;;;;;;27.00;25.50;22.80;35.80;;;;;;109636;1259;54453;-61
2023/02/28 10:18:57;;;;;;;;;33.00;27.00;22.80;35.70;;;;;;109660;1259;49732;-61
2023/02/28 10:21:30;;;;;;;;;32.00;30.00;22.80;35.20;;;;;;109748;1260;49113;-61
2023/02/28 10:24:04;;;;;;;;;31.00;28.00;22.80;35.70;;;;;;109685;1261;45225;-62
2023/02/28 10:26:32;;;;;;;;;26.00;24.00;22.80;35.70;;;;;;109605;1257;55096;-63
2023/02/28 10:28:58;;;;;;;;;36.00;30.00;22.80;35.90;;;;;;109736;1260;53725;-61
2023/02/28 10:31:25;;;;;;;;;37.00;30.00;22.80;35.80;;;;;;109609;1255;49342;-61
2023/02/28 10:33:51;;;;;;;;;30.00;28.33;22.70;35.70;;;;;;109532;1261;49363;-65
2023/02/28 10:36:19;;;;;;;;;33.50;30.00;22.70;35.70;;;;;;109691;1256;46182;-62
2023/02/28 10:38:47;;;;;;;;;26.00;23.00;22.70;35.80;;;;;;109645;1261;55174;-62
2023/02/28 10:41:16;;;;;;;;;31.00;28.00;22.70;35.80;;;;;;109593;1260;54356;-61
2023/02/28 10:43:44;;;;;;;;;30.00;27.00;22.70;35.90;;;;;;109598;1256;49665;-60
2023/02/28 10:46:22;;;;;;;;;33.50;29.50;22.70;36.20;;;;;;109626;1255;48906;-61
2023/02/28 10:49:06;;;;;;;;;28.00;26.00;22.60;35.90;;;;;;109611;1256;46382;-61
2023/02/28 10:51:39;;;;;;;;;26.50;25.50;22.60;35.90;;;;;;109889;1259;56109;-61
2023/02/28 10:54:05;;;;;;;;;26.00;25.00;22.60;35.90;;;;;;109708;1255;53667;-62
2023/02/28 10:56:32;;;;;;;;;36.00;31.00;22.60;35.90;;;;;;109600;1260;49250;-63
2023/02/28 10:58:59;;;;;;;;;33.00;30.00;22.60;36.00;;;;;;109640;1259;49595;-62
2023/02/28 11:01:31;;;;;;;;;33.00;30.00;22.60;35.90;;;;;;109574;1257;45925;-62
2023/02/28 11:03:58;;;;;;;;;25.67;24.33;22.60;36.00;;;;;;109572;1260;56794;-63
2023/02/28 11:06:33;;;;;;;;;32.00;29.00;22.50;36.00;;;;;;109579;1260;53726;-62
2023/02/28 11:09:03;;;;;;;;;28.00;23.00;22.50;36.40;;;;;;109573;1255;49886;-63
2023/02/28 11:11:42;;;;;;;;;31.00;28.00;22.50;36.40;;;;;;109676;1260;49246;-62
2023/02/28 11:14:20;;;;;;;;;28.50;26.00;22.40;36.20;;;;;;109567;1259;45969;-62
2023/02/28 11:16:47;;;;;;;;;28.00;27.00;22.50;36.30;;;;;;109567;1259;55738;-62
2023/02/28 11:19:24;;;;;;;;;31.00;25.00;22.50;36.30;;;;;;109544;1261;53831;-61
2023/02/28 11:21:55;;;;;;;;;28.50;27.00;22.50;36.40;;;;;;109645;1255;50518;-62
2023/02/28 11:24:26;;;;;;;;;29.00;27.00;22.40;36.30;;;;;;109549;1257;48968;-61
2023/02/28 11:26:52;;;;;;;;;26.00;24.00;22.50;36.60;;;;;;109623;1260;45324;-62
2023/02/28 11:29:18;;;;;;;;;28.00;25.00;22.40;36.30;;;;;;109536;1260;56296;-61
2023/02/28 11:32:09;;;;;;;;;27.00;25.00;22.40;36.40;;;;;;109578;1257;53720;-62
2023/02/28 11:34:37;;;;;;;;;31.00;28.00;22.40;36.50;;;;;;109693;1257;49436;-63
2023/02/28 11:37:05;;;;;;;;;30.00;25.50;22.40;36.50;;;;;;109609;1255;50344;-61
2023/02/28 11:39:32;;;;;;;;;24.00;22.00;22.40;36.70;;;;;;109735;1260;45537;-62
2023/02/28 11:42:46;;;;;;;;;28.00;25.00;22.40;36.60;;;;;;109616;1255;56039;-63
2023/02/28 11:45:17;;;;;;;;;28.00;24.67;22.30;36.50;;;;;;109572;1256;55283;-62
2023/02/28 11:48:22;;;;;;;;;29.00;24.00;22.30;36.50;;;;;;109556;1260;49252;-62
2023/02/28 11:51:00;;;;;;;;;27.33;25.00;22.30;36.50;;;;;;109356;1255;49499;-61
2023/02/28 11:53:56;;;;;;;;;27.50;24.00;22.40;36.80;;;;;;109639;1257;45291;-61
2023/02/28 11:56:41;;;;;;;;;25.00;23.00;22.30;36.50;;;;;;109651;1260;55336;-61
2023/02/28 11:59:28;;;;;;;;;23.50;22.00;22.30;36.50;;;;;;109565;1260;53508;-63
2023/02/28 12:02:03;;;;;;;;;28.00;25.00;22.30;36.60;;;;;;109653;1257;49603;-62
2023/02/28 12:04:49;;;;;;;;;29.00;26.00;22.30;36.90;;;;;;109558;1257;50308;-62
2023/02/28 12:07:30;;;;;;;;;28.33;26.33;22.20;36.60;;;;;;109564;1259;46055;-61
2023/02/28 12:10:24;;;;;;;;;29.00;25.00;22.20;36.60;;;;;;109532;1257;55516;-62
2023/02/28 12:13:15;;;;;;;;;25.50;24.00;22.20;36.70;;;;;;109313;1255;54463;-61
2023/02/28 12:15:54;;;;;;;;;30.50;27.50;22.20;36.60;;;;;;109626;1255;50088;-61
2023/02/28 12:18:29;;;;;;;;;29.50;25.50;22.20;36.60;;;;;;109630;1255;49395;-62
2023/02/28 12:21:17;;;;;;;;;25.00;21.00;22.20;36.60;;;;;;109681;1260;45179;-62
2023/02/28 12:24:01;;;;;;;;;30.00;27.00;22.20;36.70;;;;;;109761;1260;55383;-61
2023/02/28 12:26:43;;;;;;;;;27.00;25.00;22.20;37.00;;;;;;109770;1260;53247;-62
2023/02/28 12:29:35;;;;;;;;;29.67;26.00;22.20;36.90;;;;;;109735;1258;49259;-61
2023/02/28 12:32:12;;;;;;;;;24.67;23.33;22.10;36.70;;;;;;109623;1257;49703;-62
2023/02/28 12:34:46;;;;;;;;;31.00;27.00;22.10;36.30;;;;;;109861;1260;45464;-62
2023/02/28 12:37:28;;;;;;;;;28.00;23.00;22.20;36.80;;;;;;109563;1258;55985;-62